createdAt,value
2019-05-01T00:01:00.944Z,77.90
2019-05-01T00:03:48.439Z,77.90
2019-05-01T00:06:21.998Z,78.20
2019-05-01T00:08:51.135Z,78.20
2019-05-01T00:11:20.203Z,78.50
2019-05-01T00:13:49.265Z,78.60
2019-05-01T00:16:18.343Z,78.70
2019-05-01T00:18:47.408Z,78.80
2019-05-01T00:21:16.829Z,78.90
2019-05-01T00:23:45.923Z,78.90
2019-05-01T00:26:14.999Z,79.00
2019-05-01T00:28:44.059Z,79.00
2019-05-01T00:31:13.302Z,79.20
2019-05-01T00:33:42.372Z,79.30
2019-05-01T00:36:11.471Z,80.20
2019-05-01T00:38:40.611Z,79.50
2019-05-01T00:41:09.698Z,79.40
2019-05-01T00:43:38.779Z,79.20
2019-05-01T00:46:07.878Z,79.00
2019-05-01T00:48:36.966Z,79.00
2019-05-01T00:51:06.044Z,78.90
2019-05-01T00:53:35.136Z,79.00
2019-05-01T00:56:11.796Z,79.00
2019-05-01T00:58:57.299Z,78.80
2019-05-01T01:01:28.009Z,78.80
2019-05-01T01:03:57.109Z,78.80
2019-05-01T01:06:26.396Z,78.70
2019-05-01T01:08:55.482Z,78.60
2019-05-01T01:11:24.559Z,78.60
2019-05-01T01:13:53.697Z,78.60
2019-05-01T01:16:22.846Z,78.60
2019-05-01T01:18:52.068Z,78.70
2019-05-01T01:21:21.268Z,78.70
2019-05-01T01:23:50.426Z,78.80
2019-05-01T01:26:19.587Z,79.00
2019-05-01T01:28:48.731Z,79.10
2019-05-01T01:31:17.905Z,79.30
2019-05-01T01:33:47.127Z,79.40
2019-05-01T01:36:16.221Z,79.60
2019-05-01T01:38:45.383Z,79.70
2019-05-01T01:41:14.791Z,79.80
2019-05-01T01:44:02.571Z,80.00
2019-05-01T01:46:33.647Z,80.10
2019-05-01T01:49:02.988Z,80.30
2019-05-01T01:51:32.338Z,80.30
2019-05-01T01:54:02.107Z,81.20
2019-05-01T01:56:31.333Z,80.60
2019-05-01T01:59:00.583Z,81.10
2019-05-01T02:01:43.787Z,81.50
2019-05-01T02:04:17.555Z,81.70
2019-05-01T02:06:47.753Z,81.90
2019-05-01T02:09:16.904Z,82.10
2019-05-01T02:11:48.623Z,82.20
2019-05-01T02:14:17.845Z,82.30
2019-05-01T02:16:48.175Z,82.50
2019-05-01T02:19:17.262Z,82.50
2019-05-01T02:21:46.576Z,82.60
2019-05-01T02:24:15.686Z,83.50
2019-05-01T02:26:52.834Z,82.90
2019-05-01T02:29:24.479Z,83.10
2019-05-01T02:31:55.580Z,83.30
2019-05-01T02:34:25.840Z,83.40
2019-05-01T02:36:57.152Z,83.60
2019-05-01T02:39:27.393Z,83.60
2019-05-01T02:41:59.274Z,83.70
2019-05-01T02:44:31.541Z,83.80
2019-05-01T02:47:03.786Z,84.00
2019-05-01T02:49:41.502Z,84.00
2019-05-01T02:52:12.600Z,84.00
2019-05-01T02:54:44.660Z,84.10
2019-05-01T02:57:16.513Z,84.00
2019-05-01T02:59:48.747Z,84.10
2019-05-01T03:02:18.763Z,84.10
2019-05-01T03:04:48.474Z,84.20
2019-05-01T03:07:18.491Z,84.10
2019-05-01T03:09:48.200Z,84.10
2019-05-01T03:12:19.731Z,84.10
2019-05-01T03:14:50.968Z,84.10
2019-05-01T03:17:41.753Z,84.00
2019-05-01T03:20:22.788Z,83.80
2019-05-01T03:23:12.874Z,83.80
2019-05-01T03:25:43.034Z,83.80
2019-05-01T03:28:13.102Z,83.80
2019-05-01T03:30:42.517Z,84.50
2019-05-01T03:33:11.766Z,83.70
2019-05-01T03:35:41.358Z,83.60
2019-05-01T03:38:10.622Z,83.60
2019-05-01T03:40:41.106Z,83.60
2019-05-01T03:43:10.445Z,83.60
2019-05-01T03:45:40.643Z,83.70
2019-05-01T03:48:09.776Z,84.00
2019-05-01T03:50:39.403Z,84.00
2019-05-01T03:53:08.476Z,84.10
2019-05-01T03:55:37.575Z,84.20
2019-05-01T03:58:06.824Z,84.30
2019-05-01T04:00:40.925Z,84.50
2019-05-01T04:03:31.359Z,84.90
2019-05-01T04:06:00.710Z,85.00
2019-05-01T04:08:29.933Z,85.10
2019-05-01T04:10:59.153Z,85.10
2019-05-01T04:13:28.505Z,85.30
2019-05-01T04:15:57.800Z,85.30
2019-05-01T04:18:27.810Z,85.40
2019-05-01T04:20:58.291Z,85.30
2019-05-01T04:23:27.633Z,85.50
2019-05-01T04:25:56.853Z,85.70
2019-05-01T04:28:27.749Z,86.00
2019-05-01T04:31:14.800Z,86.00
2019-05-01T04:33:45.783Z,86.10
2019-05-01T04:36:34.975Z,86.20
2019-05-01T04:39:06.472Z,86.30
2019-05-01T04:41:36.103Z,86.30
2019-05-01T04:44:05.692Z,86.30
2019-05-01T04:46:35.901Z,86.30
2019-05-01T04:49:05.322Z,86.30
2019-05-01T04:51:35.209Z,86.30
2019-05-01T04:54:05.223Z,86.30
2019-05-01T04:56:34.542Z,86.30
2019-05-01T04:59:04.082Z,86.30
2019-05-01T05:01:35.258Z,86.40
2019-05-01T05:04:04.867Z,86.30
2019-05-01T05:06:34.188Z,86.50
2019-05-01T05:09:03.688Z,86.40
2019-05-01T05:11:46.875Z,86.50
2019-05-01T05:14:20.533Z,86.60
2019-05-01T05:16:51.325Z,86.50
2019-05-01T05:19:20.561Z,86.50
2019-05-01T05:21:50.296Z,86.50
2019-05-01T05:24:19.526Z,86.50
2019-05-01T05:26:50.070Z,86.50
2019-05-01T05:29:20.057Z,86.50
2019-05-01T05:31:51.575Z,86.50
2019-05-01T05:34:22.106Z,86.50
2019-05-01T05:36:55.748Z,86.30
2019-05-01T05:39:35.051Z,86.40
2019-05-01T05:42:05.475Z,86.30
2019-05-01T05:44:35.001Z,86.30
2019-05-01T05:47:04.267Z,86.10
2019-05-01T05:49:33.599Z,85.90
2019-05-01T05:52:05.539Z,85.90
2019-05-01T05:54:40.755Z,86.00
2019-05-01T05:57:15.222Z,85.90
2019-05-01T05:59:54.960Z,85.90
2019-05-01T06:02:34.554Z,85.70
2019-05-01T06:05:21.682Z,85.30
2019-05-01T06:08:11.241Z,85.00
2019-05-01T06:10:57.973Z,84.70
2019-05-01T06:13:43.568Z,84.70
2019-05-01T06:16:17.512Z,84.50
2019-05-01T06:18:57.474Z,84.40
2019-05-01T06:21:28.332Z,84.30
2019-05-01T06:24:06.589Z,83.90
2019-05-01T06:26:38.023Z,83.50
2019-05-01T06:29:08.271Z,83.20
2019-05-01T06:31:37.566Z,83.20
2019-05-01T06:34:07.043Z,82.70
2019-05-01T06:36:36.251Z,82.80
2019-05-01T06:39:11.740Z,82.70
2019-05-01T06:41:42.774Z,82.60
2019-05-01T06:44:17.594Z,82.70
2019-05-01T06:46:58.211Z,82.40
2019-05-01T06:49:34.729Z,82.40
2019-05-01T06:52:06.098Z,81.90
2019-05-01T06:54:36.330Z,82.20
2019-05-01T06:57:06.442Z,82.00
2019-05-01T06:59:38.397Z,81.20
2019-05-01T07:02:09.583Z,80.40
2019-05-01T07:04:39.687Z,80.30
2019-05-01T07:07:23.987Z,79.50
2019-05-01T07:09:44.284Z,79.50
2019-05-01T07:12:13.707Z,79.10
2019-05-01T07:14:47.137Z,78.50
2019-05-01T07:17:14.799Z,78.10
2019-05-01T07:20:02.555Z,77.50
2019-05-01T07:22:32.184Z,77.40
2019-05-01T07:25:04.116Z,77.40
2019-05-01T07:27:32.415Z,77.30
2019-05-01T07:30:09.209Z,77.20
2019-05-01T07:32:41.062Z,76.80
2019-05-01T07:35:09.717Z,76.30
2019-05-01T07:37:39.246Z,76.00
2019-05-01T07:40:09.995Z,76.70
2019-05-01T07:42:43.669Z,75.70
2019-05-01T07:45:26.648Z,75.50
2019-05-01T07:48:01.117Z,75.00
2019-05-01T07:50:31.878Z,74.90
2019-05-01T07:53:00.486Z,74.30
2019-05-01T07:55:35.806Z,73.00
2019-05-01T07:58:15.702Z,72.40
2019-05-01T08:01:07.615Z,71.50
2019-05-01T08:03:38.074Z,71.40
2019-05-01T08:06:07.616Z,71.40
2019-05-01T08:08:39.692Z,71.50
2019-05-01T08:11:10.103Z,71.40
2019-05-01T08:13:38.392Z,71.80
2019-05-01T08:16:08.827Z,72.10
2019-05-01T08:18:42.665Z,72.60
2019-05-01T08:21:16.426Z,72.40
2019-05-01T08:23:47.189Z,72.70
2019-05-01T08:26:16.572Z,72.80
2019-05-01T08:29:02.989Z,73.30
2019-05-01T08:31:40.576Z,73.20
2019-05-01T08:34:14.091Z,73.40
2019-05-01T08:36:47.306Z,73.50
2019-05-01T08:39:14.070Z,73.70
2019-05-01T08:41:43.338Z,74.00
2019-05-01T08:44:12.430Z,74.20
2019-05-01T08:49:21.617Z,74.70
2019-05-01T08:51:50.762Z,74.80
2019-05-01T08:54:19.845Z,74.10
2019-05-01T08:56:52.947Z,73.50
2019-05-01T08:59:23.960Z,72.80
2019-05-01T09:02:00.955Z,72.30
2019-05-01T09:04:25.211Z,71.60
2019-05-01T09:06:52.397Z,70.80
2019-05-01T09:09:21.551Z,71.00
2019-05-01T09:11:50.631Z,69.80
2019-05-01T09:14:19.807Z,69.70
2019-05-01T09:16:48.889Z,69.60
2019-05-01T09:19:17.958Z,69.40
2019-05-01T09:21:47.055Z,68.90
2019-05-01T09:24:16.137Z,69.10
2019-05-01T09:27:03.607Z,68.90
2019-05-01T09:29:37.393Z,68.40
2019-05-01T09:32:10.230Z,68.90
2019-05-01T09:34:38.651Z,69.30
2019-05-01T09:37:07.987Z,69.30
2019-05-01T09:39:37.314Z,70.10
2019-05-01T09:42:06.958Z,68.60
2019-05-01T09:44:36.364Z,67.90
2019-05-01T09:47:06.888Z,67.70
2019-05-01T09:49:36.199Z,67.40
2019-05-01T09:52:23.515Z,67.20
2019-05-01T09:54:54.357Z,66.70
2019-05-01T09:57:23.432Z,66.40
2019-05-01T09:59:52.665Z,66.20
2019-05-01T10:02:21.751Z,65.50
2019-05-01T10:04:50.856Z,65.10
2019-05-01T10:07:23.803Z,64.50
2019-05-01T10:09:52.077Z,62.90
2019-05-01T10:12:21.564Z,62.50
2019-05-01T10:14:50.631Z,61.50
2019-05-01T10:17:19.741Z,60.40
2019-05-01T10:19:50.231Z,59.90
2019-05-01T10:22:19.567Z,59.50
2019-05-01T10:24:48.646Z,58.70
2019-05-01T10:27:19.390Z,58.20
2019-05-01T10:29:56.868Z,58.00
2019-05-01T10:32:31.460Z,58.00
2019-05-01T10:35:02.260Z,57.50
2019-05-01T10:37:33.628Z,57.10
2019-05-01T10:40:02.241Z,57.30
2019-05-01T10:42:31.320Z,57.10
2019-05-01T10:45:00.409Z,57.20
2019-05-01T10:47:29.496Z,57.40
2019-05-01T10:49:58.679Z,57.30
2019-05-01T10:52:27.756Z,57.20
2019-05-01T10:54:56.893Z,57.60
2019-05-01T10:57:25.993Z,57.60
2019-05-01T10:59:55.079Z,57.50
2019-05-01T11:02:24.179Z,57.40
2019-05-01T11:04:53.258Z,57.40
2019-05-01T11:07:22.383Z,57.00
2019-05-01T11:09:51.515Z,56.60
2019-05-01T11:12:20.628Z,56.10
2019-05-01T11:14:49.796Z,56.60
2019-05-01T11:17:19.013Z,56.50
2019-05-01T11:19:48.106Z,56.60
2019-05-01T11:22:17.190Z,56.40
2019-05-01T11:24:46.312Z,56.10
2019-05-01T11:27:15.459Z,56.00
2019-05-01T11:29:44.635Z,55.80
2019-05-01T11:32:27.690Z,55.80
2019-05-01T11:35:01.193Z,55.60
2019-05-01T11:37:43.971Z,55.50
2019-05-01T11:40:17.675Z,55.40
2019-05-01T11:42:46.765Z,54.40
2019-05-01T11:45:16.095Z,53.70
2019-05-01T11:47:45.188Z,53.50
2019-05-01T11:50:14.518Z,53.10
2019-05-01T11:52:43.658Z,53.00
2019-05-01T11:55:12.848Z,53.30
2019-05-01T11:57:42.020Z,53.40
2019-05-01T12:00:13.480Z,53.50
2019-05-01T12:02:42.582Z,53.40
2019-05-01T12:05:11.890Z,53.30
2019-05-01T12:07:40.994Z,53.30
2019-05-01T12:10:10.431Z,53.00
2019-05-01T12:12:39.604Z,53.10
2019-05-01T12:15:09.414Z,53.10
2019-05-01T12:17:46.187Z,52.90
2019-05-01T12:20:15.695Z,53.10
2019-05-01T12:22:47.515Z,52.80
2019-05-01T12:25:15.856Z,52.10
2019-05-01T12:27:44.936Z,51.60
2019-05-01T12:30:17.250Z,51.30
2019-05-01T12:32:46.409Z,51.40
2019-05-01T12:35:15.704Z,51.40
2019-05-01T12:37:44.806Z,51.40
2019-05-01T12:40:16.457Z,51.30
2019-05-01T12:42:45.542Z,50.90
2019-05-01T12:45:15.771Z,49.40
2019-05-01T12:47:49.740Z,48.20
2019-05-01T12:50:19.263Z,48.00
2019-05-01T12:52:59.160Z,47.60
2019-05-01T12:55:32.495Z,47.70
2019-05-01T12:58:01.659Z,47.60
2019-05-01T13:00:46.777Z,48.00
2019-05-01T13:03:15.943Z,47.70
2019-05-01T13:05:45.193Z,46.90
2019-05-01T13:08:14.267Z,46.30
2019-05-01T13:10:43.465Z,45.30
2019-05-01T13:13:12.633Z,45.30
2019-05-01T13:15:41.789Z,45.20
2019-05-01T13:18:10.965Z,45.10
2019-05-01T13:20:40.114Z,45.20
2019-05-01T13:23:09.289Z,45.40
2019-05-01T13:25:38.372Z,45.40
2019-05-01T13:28:21.382Z,45.30
2019-05-01T13:30:54.786Z,45.70
2019-05-01T13:33:23.918Z,46.00
2019-05-01T13:35:53.147Z,46.00
2019-05-01T13:38:22.380Z,46.30
2019-05-01T13:40:51.662Z,46.50
2019-05-01T13:43:20.748Z,46.60
2019-05-01T13:45:49.834Z,46.60
2019-05-01T13:48:18.914Z,46.60
2019-05-01T13:50:47.998Z,46.50
2019-05-01T13:53:17.084Z,46.60
2019-05-01T13:55:46.314Z,46.60
2019-05-01T13:58:15.405Z,46.20
2019-05-01T14:00:44.550Z,46.20
2019-05-01T14:03:13.768Z,46.40
2019-05-01T14:05:42.860Z,46.50
2019-05-01T14:08:12.037Z,46.10
2019-05-01T14:10:41.208Z,46.30
2019-05-01T14:13:10.365Z,46.10
2019-05-01T14:15:39.544Z,45.50
2019-05-01T14:18:08.319Z,45.50
2019-05-01T14:20:39.188Z,45.20
2019-05-01T14:23:18.475Z,45.00
2019-05-01T14:26:06.482Z,44.80
2019-05-01T14:28:36.079Z,44.90
2019-05-01T14:31:06.179Z,44.50
2019-05-01T14:33:35.057Z,44.80
2019-05-01T14:36:04.252Z,44.40
2019-05-01T14:38:33.052Z,44.60
2019-05-01T14:41:01.909Z,44.60
2019-05-01T14:43:30.752Z,44.70
2019-05-01T14:45:59.551Z,44.50
2019-05-01T14:48:28.327Z,44.50
2019-05-01T14:50:57.134Z,44.60
2019-05-01T14:53:26.057Z,44.70
2019-05-01T14:55:54.831Z,44.30
2019-05-01T14:58:23.657Z,44.30
2019-05-01T15:00:52.508Z,44.60
2019-05-01T15:03:21.308Z,44.50
2019-05-01T15:05:50.075Z,44.60
2019-05-01T15:08:18.862Z,44.80
2019-05-01T15:10:47.622Z,44.60
2019-05-01T15:13:20.465Z,44.60
2019-05-01T15:15:53.649Z,44.70
2019-05-01T15:18:24.081Z,44.90
2019-05-01T15:20:52.867Z,45.10
2019-05-01T15:23:21.655Z,44.80
2019-05-01T15:25:50.432Z,45.10
2019-05-01T15:28:19.237Z,44.80
2019-05-01T15:30:48.014Z,44.60
2019-05-01T15:33:16.796Z,44.20
2019-05-01T15:35:45.655Z,44.20
2019-05-01T15:38:14.442Z,43.80
2019-05-01T15:40:47.781Z,43.60
2019-05-01T15:43:30.144Z,43.50
2019-05-01T15:45:58.940Z,43.60
2019-05-01T15:48:27.792Z,43.10
2019-05-01T15:50:56.570Z,42.90
2019-05-01T15:53:25.342Z,43.20
2019-05-01T15:55:54.120Z,43.10
2019-05-01T15:58:22.916Z,43.30
2019-05-01T16:00:51.686Z,43.70
2019-05-01T16:03:20.468Z,43.60
2019-05-01T16:05:49.252Z,43.60
2019-05-01T16:08:18.120Z,43.90
2019-05-01T16:11:05.136Z,44.00
2019-05-01T16:13:34.020Z,44.00
2019-05-01T16:16:02.930Z,43.70
2019-05-01T16:18:31.798Z,43.60
2019-05-01T16:21:00.591Z,43.80
2019-05-01T16:23:29.468Z,43.60
2019-05-01T16:25:58.309Z,43.50
2019-05-01T16:28:27.094Z,43.60
2019-05-01T16:30:55.864Z,43.70
2019-05-01T16:33:24.680Z,43.60
2019-05-01T16:35:53.526Z,43.50
2019-05-01T16:38:26.892Z,43.00
2019-05-01T16:40:57.315Z,43.40
2019-05-01T16:43:26.096Z,43.70
2019-05-01T16:45:54.953Z,44.20
2019-05-01T16:48:23.717Z,44.20
2019-05-01T16:50:52.641Z,44.20
2019-05-01T16:53:21.477Z,44.20
2019-05-01T16:55:50.335Z,43.90
2019-05-01T16:58:19.447Z,43.90
2019-05-01T17:00:57.193Z,44.20
2019-05-01T17:03:36.635Z,44.20
2019-05-01T17:06:23.427Z,44.10
2019-05-01T17:08:56.559Z,44.00
2019-05-01T17:11:30.151Z,44.20
2019-05-01T17:13:59.314Z,44.50
2019-05-01T17:16:28.509Z,44.80
2019-05-01T17:18:57.294Z,45.10
2019-05-01T17:21:26.063Z,45.20
2019-05-01T17:23:54.858Z,45.40
2019-05-01T17:26:23.636Z,46.00
2019-05-01T17:28:52.509Z,46.30
2019-05-01T17:31:23.274Z,46.40
2019-05-01T17:33:55.663Z,46.70
2019-05-01T17:36:23.208Z,46.90
2019-05-01T17:38:52.317Z,47.10
2019-05-01T17:41:22.694Z,47.30
2019-05-01T17:43:52.236Z,47.50
2019-05-01T17:46:21.422Z,48.00
2019-05-01T17:48:50.503Z,48.60
2019-05-01T17:51:20.116Z,49.30
2019-05-01T17:53:49.342Z,50.00
2019-05-01T17:56:24.952Z,50.70
2019-05-01T17:58:49.213Z,51.40
2019-05-01T18:01:36.343Z,51.90
2019-05-01T18:04:07.309Z,52.20
2019-05-01T18:06:41.900Z,52.60
2019-05-01T18:09:13.693Z,52.80
2019-05-01T18:11:47.331Z,53.10
2019-05-01T18:14:14.209Z,53.50
2019-05-01T18:16:43.450Z,53.80
2019-05-01T18:19:12.536Z,54.20
2019-05-01T18:21:46.699Z,54.30
2019-05-01T18:24:32.004Z,54.50
2019-05-01T18:27:18.616Z,54.80
2019-05-01T18:29:47.036Z,55.00
2019-05-01T18:32:20.477Z,55.20
2019-05-01T18:34:49.635Z,55.30
2019-05-01T18:37:31.295Z,55.50
2019-05-01T18:40:00.076Z,55.60
2019-05-01T18:42:29.229Z,55.80
2019-05-01T18:44:58.313Z,56.10
2019-05-01T18:47:27.886Z,56.30
2019-05-01T18:49:56.985Z,56.60
2019-05-01T18:52:26.215Z,56.80
2019-05-01T18:54:55.292Z,57.10
2019-05-01T18:57:24.387Z,57.30
2019-05-01T18:59:53.504Z,57.50
2019-05-01T19:02:25.079Z,57.80
2019-05-01T19:04:53.408Z,58.00
2019-05-01T19:07:22.638Z,58.30
2019-05-01T19:09:51.822Z,58.60
2019-05-01T19:12:21.230Z,58.70
2019-05-01T19:14:50.523Z,58.90
2019-05-01T19:17:19.677Z,59.10
2019-05-01T19:19:48.839Z,59.30
2019-05-01T19:22:17.938Z,59.40
2019-05-01T19:24:47.386Z,59.50
2019-05-01T19:27:18.910Z,59.70
2019-05-01T19:29:48.158Z,59.90
2019-05-01T19:32:18.446Z,60.00
2019-05-01T19:34:47.542Z,60.20
2019-05-01T19:37:21.956Z,60.50
2019-05-01T19:39:48.996Z,60.80
2019-05-01T19:42:21.656Z,61.00
2019-05-01T19:44:50.997Z,61.30
2019-05-01T19:47:20.490Z,61.50
2019-05-01T19:49:49.740Z,61.80
2019-05-01T19:52:18.994Z,62.10
2019-05-01T19:54:48.173Z,62.30
2019-05-01T19:57:17.322Z,62.60
2019-05-01T19:59:46.448Z,62.70
2019-05-01T20:02:17.150Z,63.00
2019-05-01T20:04:50.400Z,63.20
2019-05-01T20:07:21.293Z,63.90
2019-05-01T20:09:56.735Z,63.50
2019-05-01T20:12:19.431Z,63.80
2019-05-01T20:14:48.655Z,64.10
2019-05-01T20:17:17.763Z,64.20
2019-05-01T20:19:46.974Z,64.50
2019-05-01T20:22:16.205Z,64.70
2019-05-01T20:24:45.851Z,64.80
2019-05-01T20:27:15.140Z,66.00
2019-05-01T20:29:44.221Z,65.30
2019-05-01T20:32:13.391Z,65.50
2019-05-01T20:34:42.491Z,65.80
2019-05-01T20:37:11.636Z,66.00
2019-05-01T20:39:40.725Z,66.10
2019-05-01T20:42:09.819Z,66.30
2019-05-01T20:44:38.919Z,66.50
2019-05-01T20:47:14.288Z,66.60
2019-05-01T20:49:43.397Z,66.80
2019-05-01T20:52:12.502Z,67.10
2019-05-01T20:54:41.607Z,67.30
2019-05-01T20:57:20.920Z,67.50
2019-05-01T20:59:48.272Z,67.60
2019-05-01T21:02:16.809Z,67.70
2019-05-01T21:04:47.565Z,68.00
2019-05-01T21:07:33.007Z,68.30
2019-05-01T21:10:03.263Z,68.40
2019-05-01T21:12:32.420Z,68.60
2019-05-01T21:15:01.649Z,68.90
2019-05-01T21:17:30.737Z,69.00
2019-05-01T21:19:59.821Z,69.20
2019-05-01T21:22:28.898Z,69.40
2019-05-01T21:24:57.981Z,69.50
2019-05-01T21:27:27.063Z,69.60
2019-05-01T21:29:56.158Z,69.70
2019-05-01T21:32:27.358Z,70.00
2019-05-01T21:34:56.038Z,70.10
2019-05-01T21:37:25.188Z,70.50
2019-05-01T21:39:54.289Z,70.60
2019-05-01T21:42:24.465Z,70.70
2019-05-01T21:44:53.964Z,71.00
2019-05-01T21:47:23.643Z,71.20
2019-05-01T21:49:53.131Z,71.40
2019-05-01T21:52:26.323Z,71.70
2019-05-01T21:54:55.193Z,71.80
2019-05-01T21:57:24.496Z,71.90
2019-05-01T21:59:55.305Z,71.90
2019-05-01T22:02:25.158Z,72.00
2019-05-01T22:04:54.340Z,71.90
2019-05-01T22:07:27.347Z,71.90
2019-05-01T22:09:54.282Z,71.90
2019-05-01T22:12:23.380Z,71.70
2019-05-01T22:14:54.218Z,71.60
2019-05-01T22:17:32.178Z,71.70
2019-05-01T22:19:58.771Z,71.60
2019-05-01T22:22:45.981Z,71.50
2019-05-01T22:25:22.860Z,71.60
2019-05-01T22:27:53.595Z,71.70
2019-05-01T22:30:27.027Z,71.90
2019-05-01T22:32:57.818Z,72.00
2019-05-01T22:35:46.648Z,72.20
2019-05-01T22:38:15.805Z,72.30
2019-05-01T22:41:06.091Z,72.50
2019-05-01T22:43:30.185Z,72.70
2019-05-01T22:46:01.602Z,72.90
2019-05-01T22:48:30.292Z,73.00
2019-05-01T22:51:02.364Z,73.20
2019-05-01T22:53:31.504Z,73.40
2019-05-01T22:56:02.244Z,73.50
2019-05-01T22:58:31.409Z,73.60
2019-05-01T23:01:01.051Z,73.70
2019-05-01T23:03:31.795Z,73.90
2019-05-01T23:06:02.098Z,74.00
2019-05-01T23:08:31.956Z,74.40
2019-05-01T23:11:01.033Z,74.60
2019-05-01T23:13:30.268Z,74.90
2019-05-01T23:15:59.477Z,75.20
2019-05-01T23:18:28.577Z,75.40
2019-05-01T23:20:57.642Z,75.70
2019-05-01T23:23:26.734Z,76.00
2019-05-01T23:25:55.814Z,76.30
2019-05-01T23:28:24.967Z,76.50
2019-05-01T23:30:54.189Z,76.80
2019-05-01T23:33:23.344Z,76.90
2019-05-01T23:35:52.407Z,77.10
2019-05-01T23:38:21.486Z,77.30
2019-05-01T23:40:51.223Z,77.60
2019-05-01T23:43:23.083Z,77.80
2019-05-01T23:45:52.188Z,78.10
2019-05-01T23:48:21.344Z,78.10
2019-05-01T23:50:50.508Z,78.30
2019-05-01T23:53:19.576Z,78.60
2019-05-01T23:55:48.660Z,78.90
2019-05-01T23:58:17.725Z,78.90
